Time;durP1;ratioP1;P1;durP2;ratioP2;P2;SDS_P1;SDS_P2;PMS_P1;PMS_P2;Temp;Humidity;BMP_temperature;BMP_pressure;BME280_temperature;BME280_humidity;BME280_pressure;Samples;Min_cycle;Max_cycle;Signal;HPM_P1;HPM_P2
2022/03/18 00:00:40;;;;;;;18.02;6.80;;;3.70;99.90;;;;;;5136694;27;20098;-83
2022/03/18 00:03:06;;;;;;;22.08;7.07;;;3.60;99.90;;;;;;5145757;27;20047;-83
2022/03/18 00:05:32;;;;;;;20.40;7.28;;;3.70;99.90;;;;;;5124673;27;20126;-83
2022/03/18 00:07:58;;;;;;;20.58;7.28;;;3.70;99.90;;;;;;5124579;27;20114;-83
2022/03/18 00:10:24;;;;;;;14.25;6.35;;;3.70;99.90;;;;;;5124501;27;20108;-83
2022/03/18 00:12:53;;;;;;;15.85;6.53;;;3.70;99.90;;;;;;5143270;27;20047;-83
2022/03/18 00:15:23;;;;;;;19.45;7.03;;;3.70;99.90;;;;;;5124816;27;20125;-83
2022/03/18 00:17:49;;;;;;;17.73;7.18;;;3.70;99.90;;;;;;5125121;27;20082;-83
2022/03/18 00:20:15;;;;;;;17.00;7.93;;;3.70;99.90;;;;;;5125272;27;20058;-83
2022/03/18 00:22:42;;;;;;;17.95;6.85;;;3.70;99.90;;;;;;5143301;27;20047;-83
2022/03/18 00:25:09;;;;;;;18.60;7.20;;;3.70;99.90;;;;;;5142844;27;20035;-83
2022/03/18 00:27:36;;;;;;;20.63;7.30;;;3.70;99.90;;;;;;5123848;27;20051;-82
2022/03/18 00:30:03;;;;;;;15.68;6.90;;;3.80;99.90;;;;;;5142070;27;20043;-83
2022/03/18 00:32:29;;;;;;;18.48;6.88;;;3.70;99.90;;;;;;5142676;27;20057;-83
2022/03/18 00:34:54;;;;;;;14.95;6.55;;;3.70;99.90;;;;;;5124384;27;20501;-83
2022/03/18 00:37:20;;;;;;;15.20;6.50;;;3.70;99.90;;;;;;5124046;27;20389;-83
2022/03/18 00:39:46;;;;;;;15.10;6.38;;;3.70;99.90;;;;;;5106637;27;20043;-83
2022/03/18 00:42:12;;;;;;;17.52;7.18;;;3.60;99.90;;;;;;5123886;27;20043;-83
2022/03/18 00:44:39;;;;;;;19.48;8.10;;;3.60;99.90;;;;;;5123287;27;20039;-83
2022/03/18 00:51:59;;;;;;;18.35;6.97;;;3.60;99.90;;;;;;5123841;27;20389;-83
2022/03/18 00:52:37;;;;;;;13.82;7.25;;;3.60;99.90;;;;;;5124040;27;20047;-83
2022/03/18 00:55:03;;;;;;;19.58;6.70;;;3.50;99.90;;;;;;5123857;27;20466;-83
2022/03/18 00:57:30;;;;;;;15.05;7.15;;;3.50;99.90;;;;;;5106408;27;20035;-83
2022/03/18 00:59:55;;;;;;;16.25;7.28;;;4.00;99.90;;;;;;5141950;27;20050;-83
2022/03/18 01:02:21;;;;;;;19.17;7.03;;;3.50;99.90;;;;;;5123283;27;20047;-83
2022/03/18 01:04:49;;;;;;;16.45;7.25;;;3.40;99.90;;;;;;5123545;27;20401;-83
2022/03/18 01:07:16;;;;;;;14.27;6.80;;;3.40;99.90;;;;;;5123195;27;20058;-83
2022/03/18 01:09:42;;;;;;;13.63;6.70;;;3.40;99.90;;;;;;5122946;27;20043;-83
2022/03/18 01:12:08;;;;;;;18.73;7.22;;;3.40;99.90;;;;;;5123309;27;20112;-83
2022/03/18 01:14:34;;;;;;;18.42;7.00;;;3.40;99.90;;;;;;5122525;27;20049;-83
2022/03/18 01:16:59;;;;;;;17.23;7.07;;;3.40;99.90;;;;;;5123453;27;20039;-83
2022/03/18 01:19:25;;;;;;;16.60;7.13;;;3.40;99.90;;;;;;5122573;27;20075;-83
2022/03/18 01:21:51;;;;;;;17.27;6.53;;;3.40;99.90;;;;;;5105606;28;20118;-83
2022/03/18 01:24:16;;;;;;;14.90;7.35;;;3.40;99.90;;;;;;5106390;28;20050;-83
2022/03/18 01:26:42;;;;;;;15.75;6.75;;;3.40;99.90;;;;;;5122788;27;20035;-83
2022/03/18 01:29:08;;;;;;;18.38;7.63;;;3.40;99.90;;;;;;5105772;28;20050;-83
2022/03/18 01:31:35;;;;;;;15.00;6.90;;;3.20;99.90;;;;;;5105573;27;20043;-83
2022/03/18 01:34:01;;;;;;;12.88;6.43;;;3.20;99.90;;;;;;5142089;27;20115;-83
2022/03/18 01:36:26;;;;;;;12.68;6.38;;;3.20;99.90;;;;;;5123064;28;20473;-83
2022/03/18 01:38:52;;;;;;;13.30;6.47;;;3.20;99.90;;;;;;5122361;28;20525;-83
2022/03/18 01:41:18;;;;;;;13.85;6.65;;;3.20;99.90;;;;;;5107041;27;20040;-83
2022/03/18 01:43:46;;;;;;;17.48;7.07;;;3.20;99.90;;;;;;5126667;27;20135;-83
2022/03/18 01:46:13;;;;;;;14.63;6.90;;;3.20;99.90;;;;;;5126179;27;20039;-83
2022/03/18 01:48:39;;;;;;;18.00;7.50;;;3.20;99.90;;;;;;5109280;27;20046;-83
2022/03/18 01:51:05;;;;;;;12.00;6.45;;;3.10;99.90;;;;;;5146057;27;20051;-83
2022/03/18 01:53:33;;;;;;;17.13;7.07;;;3.10;99.90;;;;;;5145306;27;20050;-83
2022/03/18 01:55:59;;;;;;;15.70;6.97;;;3.00;99.90;;;;;;5126398;27;20115;-83
2022/03/18 01:58:25;;;;;;;15.35;6.80;;;2.90;99.90;;;;;;5126886;27;20386;-83
2022/03/18 02:00:51;;;;;;;14.07;6.63;;;2.90;99.90;;;;;;5126562;27;20046;-83
2022/03/18 02:03:17;;;;;;;15.32;7.20;;;2.90;99.90;;;;;;5126730;27;20043;-83
2022/03/18 02:05:43;;;;;;;15.52;6.93;;;2.90;99.90;;;;;;5126603;27;20057;-83
2022/03/18 02:08:09;;;;;;;16.55;7.47;;;2.90;99.90;;;;;;5126065;27;20039;-83
2022/03/18 02:10:36;;;;;;;17.75;7.75;;;2.90;99.90;;;;;;5145221;27;20054;-83
2022/03/18 02:13:02;;;;;;;14.63;7.38;;;2.90;99.90;;;;;;5125896;27;20041;-83
2022/03/18 02:15:28;;;;;;;16.40;7.40;;;2.90;99.90;;;;;;5126758;27;20047;-83
2022/03/18 02:17:54;;;;;;;15.18;8.38;;;3.00;99.90;;;;;;5145124;27;20039;-83
2022/03/18 02:20:21;;;;;;;17.75;7.80;;;3.00;99.90;;;;;;5125901;27;20118;-83
2022/03/18 02:22:46;;;;;;;15.50;7.60;;;3.00;99.90;;;;;;5125616;27;20035;-83
2022/03/18 02:25:12;;;;;;;17.83;7.78;;;3.00;99.90;;;;;;5126230;27;20122;-82
2022/03/18 02:27:53;;;;;;;16.85;7.95;;;3.00;99.90;;;;;;5144876;27;20035;-83
2022/03/18 02:30:19;;;;;;;16.30;7.45;;;3.00;99.90;;;;;;5125874;27;20047;-83
2022/03/18 02:32:46;;;;;;;16.48;7.50;;;3.00;99.90;;;;;;5125914;27;20043;-83
2022/03/18 02:35:11;;;;;;;15.00;7.40;;;3.00;99.90;;;;;;5126151;27;20051;-83
2022/03/18 02:37:37;;;;;;;15.25;7.00;;;3.00;99.90;;;;;;5109119;27;20539;-83
2022/03/18 02:40:03;;;;;;;17.60;8.52;;;3.00;99.90;;;;;;5125330;27;20039;-83
2022/03/18 02:42:28;;;;;;;13.07;6.93;;;3.00;99.90;;;;;;5144557;27;20043;-83
2022/03/18 02:44:54;;;;;;;15.02;7.68;;;2.80;99.90;;;;;;5125839;27;20115;-83
2022/03/18 02:47:20;;;;;;;13.40;7.25;;;2.80;99.90;;;;;;5125905;27;20039;-83
2022/03/18 02:49:46;;;;;;;20.67;7.85;;;2.80;99.90;;;;;;5136060;27;20043;-83
2022/03/18 02:52:13;;;;;;;17.00;7.53;;;2.80;99.90;;;;;;5136028;27;20074;-83
2022/03/18 02:54:39;;;;;;;14.73;6.97;;;2.80;99.90;;;;;;5133237;27;20059;-83
2022/03/18 02:57:05;;;;;;;17.75;8.43;;;2.70;99.90;;;;;;5126583;27;20066;-83
2022/03/18 02:59:32;;;;;;;16.73;7.32;;;2.70;99.90;;;;;;5126316;27;20043;-83
2022/03/18 03:01:57;;;;;;;12.98;7.38;;;2.70;99.90;;;;;;5144867;27;20051;-83
2022/03/18 03:04:23;;;;;;;16.92;8.00;;;2.70;99.90;;;;;;5126377;27;20054;-83
2022/03/18 03:09:33;;;;;;;19.55;8.05;;;2.70;99.90;;;;;;5125334;27;20043;-83
2022/03/18 03:11:58;;;;;;;16.67;8.35;;;3.00;99.90;;;;;;5125222;27;20088;-83
2022/03/18 03:14:24;;;;;;;16.17;8.10;;;2.60;99.90;;;;;;5125664;27;20047;-83
2022/03/18 03:16:50;;;;;;;17.98;7.90;;;2.60;99.90;;;;;;5125159;27;20031;-83
2022/03/18 03:19:15;;;;;;;19.38;8.35;;;2.60;99.90;;;;;;5125973;27;20101;-83
2022/03/18 03:21:41;;;;;;;14.10;7.88;;;2.60;99.90;;;;;;5144894;27;20035;-83
2022/03/18 03:24:08;;;;;;;18.65;8.45;;;2.60;99.90;;;;;;5125771;27;20062;-83
2022/03/18 03:26:37;;;;;;;17.58;8.25;;;2.50;99.90;;;;;;5144829;27;20054;-83
2022/03/18 03:29:03;;;;;;;16.33;8.30;;;2.50;99.90;;;;;;5125318;27;20035;-83
2022/03/18 03:31:28;;;;;;;17.27;8.82;;;2.50;99.90;;;;;;5125405;27;20427;-83
2022/03/18 03:33:54;;;;;;;16.63;8.43;;;2.50;99.90;;;;;;5126093;27;20042;-82
2022/03/18 03:36:20;;;;;;;15.02;8.98;;;2.50;99.90;;;;;;5115110;27;20565;-83
2022/03/18 03:38:45;;;;;;;19.20;8.95;;;2.50;99.90;;;;;;5155320;27;20039;-83
2022/03/18 03:41:11;;;;;;;20.20;9.45;;;2.50;99.90;;;;;;5131419;27;20043;-83
2022/03/18 03:43:38;;;;;;;16.75;9.05;;;2.40;99.90;;;;;;5125972;27;20047;-83
2022/03/18 03:46:04;;;;;;;19.15;9.02;;;2.40;99.90;;;;;;5144197;27;20042;-83
2022/03/18 03:48:29;;;;;;;16.95;9.30;;;2.40;99.90;;;;;;5107525;27;20035;-83
2022/03/18 03:50:55;;;;;;;17.73;9.20;;;2.40;99.90;;;;;;5143773;27;20104;-83
2022/03/18 03:53:20;;;;;;;16.35;9.55;;;2.40;99.90;;;;;;5125823;27;20043;-83
2022/03/18 03:55:46;;;;;;;15.18;8.95;;;2.30;99.90;;;;;;5124998;27;20047;-83
2022/03/18 03:58:12;;;;;;;16.70;9.02;;;2.30;99.90;;;;;;5124936;27;20047;-83
2022/03/18 04:00:38;;;;;;;14.60;8.50;;;2.30;99.90;;;;;;5125064;27;20088;-83
2022/03/18 04:03:04;;;;;;;17.35;8.75;;;2.30;99.90;;;;;;5125064;27;20039;-83
2022/03/18 04:05:32;;;;;;;16.30;8.95;;;2.30;99.90;;;;;;5124446;27;20050;-83
2022/03/18 04:07:58;;;;;;;17.92;8.80;;;2.20;99.90;;;;;;5124839;27;20043;-83
2022/03/18 04:10:25;;;;;;;14.18;8.85;;;2.30;99.90;;;;;;5126229;27;20126;-83
2022/03/18 04:12:51;;;;;;;17.15;9.48;;;2.90;99.90;;;;;;5125089;27;20031;-82
2022/03/18 04:15:16;;;;;;;18.45;10.30;;;2.30;99.90;;;;;;5142919;27;20050;-83
2022/03/18 04:17:45;;;;;;;18.33;9.07;;;2.30;99.90;;;;;;5124435;27;20074;-83
2022/03/18 04:20:17;;;;;;;14.88;9.15;;;2.60;99.90;;;;;;5107201;27;20043;-83
2022/03/18 04:22:43;;;;;;;16.80;9.18;;;2.20;99.90;;;;;;5124809;27;20137;-82
2022/03/18 04:25:09;;;;;;;14.30;9.13;;;2.30;99.90;;;;;;5125570;27;20039;-83
2022/03/18 04:27:36;;;;;;;19.40;10.73;;;2.20;99.90;;;;;;5126336;27;20064;-83
2022/03/18 04:30:02;;;;;;;16.25;9.93;;;2.20;99.90;;;;;;5126149;27;20058;-83
2022/03/18 04:32:27;;;;;;;18.48;9.85;;;2.30;99.90;;;;;;5146090;27;20039;-82
2022/03/18 04:34:53;;;;;;;17.25;9.68;;;2.20;99.90;;;;;;5110881;27;20066;-82
2022/03/18 04:37:19;;;;;;;17.70;10.35;;;2.20;99.90;;;;;;5126175;27;20051;-83
2022/03/18 04:39:44;;;;;;;17.55;9.35;;;2.20;99.90;;;;;;5108138;27;20042;-83
2022/03/18 04:42:10;;;;;;;16.45;10.48;;;2.20;99.90;;;;;;5124930;27;20070;-83
2022/03/18 04:44:35;;;;;;;21.20;11.15;;;2.10;99.90;;;;;;5125329;27;20039;-83
2022/03/18 04:47:01;;;;;;;20.52;10.23;;;2.20;99.90;;;;;;5143440;27;20035;-83
2022/03/18 04:49:27;;;;;;;18.80;10.88;;;2.50;99.90;;;;;;5124523;27;20130;-83
2022/03/18 04:51:52;;;;;;;16.50;10.02;;;2.20;99.90;;;;;;5123453;27;20043;-83
2022/03/18 04:54:18;;;;;;;20.55;10.65;;;2.10;99.90;;;;;;5123933;27;20046;-83
2022/03/18 04:59:28;;;;;;;21.25;11.32;;;2.10;99.90;;;;;;5122875;27;20493;-83
2022/03/18 05:01:54;;;;;;;17.40;10.88;;;2.10;99.90;;;;;;5142771;27;20045;-83
2022/03/18 05:04:20;;;;;;;15.30;10.45;;;2.10;99.90;;;;;;5141950;27;20039;-83
2022/03/18 05:06:46;;;;;;;20.08;11.43;;;2.10;99.90;;;;;;5106768;27;20119;-83
2022/03/18 05:09:13;;;;;;;18.98;11.35;;;2.10;99.90;;;;;;5123446;27;20054;-83
2022/03/18 05:11:38;;;;;;;19.13;11.20;;;2.10;99.90;;;;;;5124191;27;20042;-83
2022/03/18 05:14:04;;;;;;;16.60;11.35;;;2.00;99.90;;;;;;5123525;27;20043;-83
2022/03/18 05:16:30;;;;;;;20.38;11.10;;;2.00;99.90;;;;;;5123726;27;20039;-83
2022/03/18 05:18:55;;;;;;;22.48;11.55;;;2.10;99.90;;;;;;5123089;27;20043;-83
2022/03/18 05:21:21;;;;;;;23.60;12.52;;;2.00;99.90;;;;;;5123363;27;20054;-83
2022/03/18 05:23:47;;;;;;;21.13;12.45;;;2.20;99.90;;;;;;5105269;27;20043;-83
2022/03/18 05:26:13;;;;;;;20.00;13.20;;;2.00;99.90;;;;;;5122931;28;20066;-83
2022/03/18 05:28:39;;;;;;;24.48;14.25;;;2.00;99.90;;;;;;5122347;27;20425;-83
2022/03/18 05:31:05;;;;;;;28.27;15.23;;;2.00;99.90;;;;;;5121967;27;20057;-83
2022/03/18 05:33:30;;;;;;;26.73;14.32;;;2.00;99.90;;;;;;5141687;27;20054;-83
2022/03/18 05:35:56;;;;;;;22.77;13.60;;;2.00;99.90;;;;;;5122950;27;20082;-83
2022/03/18 05:38:21;;;;;;;22.63;13.63;;;2.00;99.90;;;;;;5106325;28;20039;-83
2022/03/18 05:40:47;;;;;;;23.08;14.30;;;2.00;99.90;;;;;;5124529;28;20043;-84
2022/03/18 05:43:13;;;;;;;22.15;13.18;;;2.00;99.90;;;;;;5123079;28;20035;-84
2022/03/18 05:45:39;;;;;;;25.58;13.45;;;1.90;99.90;;;;;;5122334;28;20521;-84
2022/03/18 05:48:08;;;;;;;21.73;13.48;;;2.00;99.90;;;;;;5122237;28;20051;-84
2022/03/18 05:50:34;;;;;;;23.67;14.15;;;2.00;99.90;;;;;;5122990;28;20534;-84
2022/03/18 05:53:00;;;;;;;24.63;14.32;;;1.90;99.90;;;;;;5123039;28;20100;-84
2022/03/18 05:56:52;;;;;;;21.27;13.80;;;2.00;99.90;;;;;;5126782;28;20055;-84
2022/03/18 05:58:12;;;;;;;22.30;14.35;;;2.00;99.90;;;;;;5130784;28;20085;-84
2022/03/18 06:00:38;;;;;;;25.30;14.27;;;1.90;99.90;;;;;;5127601;28;20043;-84
2022/03/18 06:03:04;;;;;;;24.02;14.20;;;1.90;99.90;;;;;;5106156;28;20047;-84
2022/03/18 06:05:29;;;;;;;29.75;15.18;;;1.90;99.90;;;;;;5122195;28;20039;-84
2022/03/18 06:11:48;;;;;;;28.77;16.33;;;1.90;99.90;;;;;;5115748;28;20039;-85
2022/03/18 06:13:25;;;;;;;28.98;15.73;;;1.90;99.90;;;;;;5115633;28;20086;-85
2022/03/18 06:15:50;;;;;;;23.65;15.30;;;2.00;99.90;;;;;;5115764;28;20070;-85
2022/03/18 06:18:16;;;;;;;27.20;16.17;;;2.00;99.90;;;;;;5116505;28;20043;-85
2022/03/18 06:20:41;;;;;;;30.33;16.48;;;2.00;99.90;;;;;;5116848;28;20076;-84
2022/03/18 06:23:07;;;;;;;29.13;16.70;;;2.00;99.90;;;;;;5117668;28;20179;-85
2022/03/18 06:25:32;;;;;;;26.67;16.42;;;2.10;99.90;;;;;;5117622;28;20501;-84
2022/03/18 06:27:58;;;;;;;24.23;15.90;;;2.10;99.90;;;;;;5117788;27;20047;-84
2022/03/18 06:30:23;;;;;;;29.65;17.95;;;2.10;99.90;;;;;;5121411;27;20045;-85
2022/03/18 06:32:49;;;;;;;29.85;17.35;;;2.20;99.90;;;;;;5140176;27;20117;-84
2022/03/18 06:35:15;;;;;;;27.40;17.65;;;2.20;99.90;;;;;;5140927;27;20088;-85
2022/03/18 06:37:40;;;;;;;30.20;17.55;;;2.30;99.90;;;;;;5122252;27;20075;-84
2022/03/18 06:40:06;;;;;;;28.10;17.13;;;2.30;99.90;;;;;;5120955;27;20040;-84
2022/03/18 06:42:32;;;;;;;26.70;17.92;;;2.30;99.90;;;;;;5121097;27;20047;-84
2022/03/18 06:44:57;;;;;;;29.63;18.70;;;2.40;99.90;;;;;;5121285;27;20500;-84
2022/03/18 06:47:24;;;;;;;34.17;20.40;;;2.50;99.90;;;;;;5120930;27;20039;-85
2022/03/18 06:49:50;;;;;;;32.92;20.05;;;2.60;99.90;;;;;;5103436;27;20157;-85
2022/03/18 06:52:15;;;;;;;30.27;19.83;;;2.60;99.90;;;;;;5103911;27;20070;-85
2022/03/18 06:54:41;;;;;;;32.67;20.38;;;2.70;99.90;;;;;;5120665;27;20397;-85
2022/03/18 06:57:06;;;;;;;32.25;20.42;;;2.80;99.90;;;;;;5104125;27;20058;-85
2022/03/18 06:59:32;;;;;;;37.05;22.42;;;2.80;99.90;;;;;;5120382;27;20090;-85
2022/03/18 07:01:58;;;;;;;38.92;23.88;;;2.90;99.90;;;;;;5103759;27;20050;-85
2022/03/18 07:04:23;;;;;;;39.15;22.77;;;3.00;99.90;;;;;;5120018;27;20046;-85
2022/03/18 07:06:49;;;;;;;34.88;24.50;;;3.00;99.90;;;;;;5138462;27;20035;-84
2022/03/18 07:09:15;;;;;;;34.38;22.02;;;3.00;99.90;;;;;;5105296;27;20080;-84
2022/03/18 07:11:41;;;;;;;34.03;21.65;;;3.10;99.90;;;;;;5123775;27;20084;-85
2022/03/18 07:14:07;;;;;;;37.72;22.02;;;3.20;99.90;;;;;;5120919;27;20050;-85
2022/03/18 07:19:16;;;;;;;34.53;20.95;;;3.30;99.90;;;;;;5119647;27;20131;-85
2022/03/18 07:21:42;;;;;;;38.10;20.92;;;3.30;99.90;;;;;;5119415;27;20085;-85
2022/03/18 07:24:07;;;;;;;33.55;20.67;;;3.40;99.90;;;;;;5119618;27;20126;-85
2022/03/18 07:26:33;;;;;;;35.17;21.45;;;3.50;99.90;;;;;;5119332;27;20043;-85
2022/03/18 07:29:03;;;;;;;31.40;20.50;;;3.60;99.90;;;;;;5138121;27;20039;-85
2022/03/18 07:31:29;;;;;;;33.05;21.15;;;3.70;99.90;;;;;;5119708;27;20171;-84
2022/03/18 07:33:55;;;;;;;35.25;21.00;;;4.10;99.90;;;;;;5119832;27;20104;-84
2022/03/18 07:36:21;;;;;;;36.65;21.88;;;3.90;99.90;;;;;;5120204;27;20465;-85
2022/03/18 07:38:47;;;;;;;40.05;20.88;;;4.00;99.90;;;;;;5119647;27;20130;-85
2022/03/18 07:41:12;;;;;;;34.63;20.25;;;4.10;99.90;;;;;;5119955;27;20077;-85
2022/03/18 07:43:38;;;;;;;37.05;21.63;;;4.20;99.90;;;;;;5119297;27;20089;-85
2022/03/18 07:46:04;;;;;;;33.80;20.92;;;4.30;99.90;;;;;;5119371;27;20035;-83
2022/03/18 07:48:29;;;;;;;33.97;20.70;;;4.40;99.90;;;;;;5119255;27;20051;-83
2022/03/18 07:50:55;;;;;;;35.20;20.00;;;4.50;99.90;;;;;;5119545;27;20054;-85
2022/03/18 07:53:21;;;;;;;35.22;21.08;;;4.70;99.90;;;;;;5119995;27;20392;-83
2022/03/18 07:55:47;;;;;;;36.50;20.45;;;4.80;99.90;;;;;;5119505;27;20095;-83
2022/03/18 07:58:13;;;;;;;30.95;18.83;;;5.50;99.90;;;;;;5119156;27;20039;-83
2022/03/18 08:00:38;;;;;;;34.75;19.77;;;5.20;99.90;;;;;;5119045;27;20743;-83
2022/03/18 08:03:04;;;;;;;33.97;19.35;;;5.40;99.90;;;;;;5119386;27;20043;-83
2022/03/18 08:05:30;;;;;;;31.75;19.02;;;5.60;99.90;;;;;;5119188;27;20118;-83
2022/03/18 08:07:57;;;;;;;31.45;18.55;;;5.80;99.90;;;;;;5119394;27;20070;-83
2022/03/18 08:10:23;;;;;;;33.40;18.30;;;6.00;99.90;;;;;;5119646;27;20109;-83
2022/03/18 08:12:49;;;;;;;33.13;17.13;;;6.10;99.90;;;;;;5119509;27;20039;-83
2022/03/18 08:15:16;;;;;;;30.42;16.67;;;6.40;99.90;;;;;;5101687;27;20054;-83
2022/03/18 08:17:43;;;;;;;32.05;16.45;;;6.50;99.90;;;;;;5118403;27;20566;-83
2022/03/18 08:20:13;;;;;;;30.58;15.68;;;6.70;99.90;;;;;;5100777;27;20035;-83
2022/03/18 08:22:39;;;;;;;29.48;15.23;;;6.90;99.90;;;;;;5117615;27;20039;-83
2022/03/18 08:25:07;;;;;;;29.55;15.13;;;7.10;99.90;;;;;;5118294;27;20054;-85
2022/03/18 08:27:33;;;;;;;29.25;15.07;;;7.30;99.90;;;;;;5119072;27;20043;-82
2022/03/18 08:29:59;;;;;;;29.05;14.80;;;7.40;99.90;;;;;;5119104;27;20121;-82
2022/03/18 08:32:27;;;;;;;27.15;14.30;;;7.60;99.90;;;;;;5138057;27;20085;-82
2022/03/18 08:34:54;;;;;;;26.88;11.30;;;7.80;99.90;;;;;;5118883;27;20035;-82
2022/03/18 08:37:56;;;;;;;19.25;11.00;;;8.00;99.90;;;;;;5102606;27;20039;-82
2022/03/18 08:40:07;;;;;;;19.20;11.05;;;8.40;99.90;;;;;;5138009;27;20099;-83
2022/03/18 08:42:34;;;;;;;22.25;10.02;;;8.30;99.90;;;;;;5119291;27;20043;-82
2022/03/18 08:45:00;;;;;;;25.20;10.65;;;8.70;99.90;;;;;;5120633;27;20110;-82
2022/03/18 08:47:26;;;;;;;24.13;10.90;;;8.60;99.90;;;;;;5102842;27;20047;-83
2022/03/18 08:49:52;;;;;;;23.90;9.85;;;9.30;99.90;;;;;;5119523;27;20043;-84
2022/03/18 08:52:18;;;;;;;19.42;10.05;;;9.10;99.90;;;;;;5102409;27;20049;-83
2022/03/18 08:54:44;;;;;;;22.17;9.90;;;9.20;99.90;;;;;;5119473;27;20039;-83
2022/03/18 08:57:10;;;;;;;22.02;10.60;;;9.00;99.90;;;;;;5137994;27;20530;-83
2022/03/18 08:59:36;;;;;;;23.25;10.48;;;9.10;99.90;;;;;;5102397;27;20043;-83
2022/03/18 09:02:02;;;;;;;22.27;9.57;;;9.30;99.90;;;;;;5119697;27;20042;-84
2022/03/18 09:04:28;;;;;;;17.23;9.10;;;9.40;99.90;;;;;;5137639;27;20047;-83
2022/03/18 09:06:54;;;;;;;22.13;9.40;;;9.50;99.90;;;;;;5118750;27;20066;-83
2022/03/18 09:09:19;;;;;;;23.25;9.25;;;9.50;99.90;;;;;;5118956;27;20046;-83
2022/03/18 09:11:45;;;;;;;21.05;7.97;;;9.60;99.90;;;;;;5138727;27;20118;-83
2022/03/18 09:14:12;;;;;;;15.05;8.05;;;9.80;99.90;;;;;;5119953;27;20472;-83
2022/03/18 09:16:38;;;;;;;17.98;9.00;;;10.00;99.90;;;;;;5101894;27;20135;-84
2022/03/18 09:19:07;;;;;;;18.38;8.50;;;10.60;99.90;;;;;;5118592;27;20108;-84
2022/03/18 09:21:34;;;;;;;17.30;9.18;;;10.10;99.90;;;;;;5100712;27;20075;-84
2022/03/18 09:24:00;;;;;;;18.95;8.65;;;10.20;99.90;;;;;;5136215;27;20126;-84
2022/03/18 09:26:26;;;;;;;19.58;7.63;;;10.30;99.90;;;;;;5117463;28;20085;-84
2022/03/18 09:28:52;;;;;;;16.13;7.95;;;10.80;99.90;;;;;;5100374;27;20067;-84
2022/03/18 09:31:18;;;;;;;12.98;7.15;;;10.60;99.90;;;;;;5116996;27;20051;-84
2022/03/18 09:33:46;;;;;;;19.42;7.35;;;11.00;99.90;;;;;;5117483;28;20134;-84
2022/03/18 09:36:14;;;;;;;18.20;8.07;;;10.80;99.90;;;;;;5116968;28;20122;-84
2022/03/18 09:38:41;;;;;;;16.17;7.57;;;11.20;99.90;;;;;;5117062;28;20054;-84
2022/03/18 09:41:07;;;;;;;19.17;8.25;;;11.10;99.90;;;;;;5135842;27;20054;-84
2022/03/18 09:43:39;;;;;;;17.33;8.02;;;11.30;99.90;;;;;;5117335;28;20040;-84
2022/03/18 09:46:10;;;;;;;18.05;7.50;;;11.20;99.90;;;;;;5117537;28;20095;-84
2022/03/18 09:48:37;;;;;;;16.73;6.63;;;11.30;99.90;;;;;;5100333;28;20491;-84
2022/03/18 09:51:02;;;;;;;17.50;7.38;;;11.70;99.90;;;;;;5135262;28;20095;-84
2022/03/18 09:53:28;;;;;;;14.57;6.93;;;11.60;99.90;;;;;;5116964;28;20114;-84
2022/03/18 09:55:53;;;;;;;16.20;6.88;;;12.30;99.90;;;;;;5116758;28;20055;-84
2022/03/18 09:58:21;;;;;;;13.48;6.30;;;11.70;99.90;;;;;;5116842;28;20043;-84
2022/03/18 10:00:50;;;;;;;15.95;6.85;;;11.90;99.90;;;;;;5116108;28;20510;-84
2022/03/18 10:03:18;;;;;;;16.10;7.28;;;12.00;99.90;;;;;;5117284;27;20381;-84
2022/03/18 10:05:59;;;;;;;13.63;6.97;;;12.00;99.90;;;;;;5120337;27;20404;-84
2022/03/18 10:08:41;;;;;;;15.70;7.10;;;12.40;99.90;;;;;;5120224;27;20039;-84
2022/03/18 10:11:20;;;;;;;14.73;6.43;;;12.20;99.90;;;;;;5120139;27;20051;-84
2022/03/18 10:13:58;;;;;;;12.57;6.47;;;12.20;99.90;;;;;;5120198;27;20354;-84
2022/03/18 10:16:41;;;;;;;15.45;6.60;;;12.40;99.90;;;;;;5102828;27;20043;-84
2022/03/18 10:19:14;;;;;;;15.05;6.78;;;12.40;99.90;;;;;;5138964;27;20051;-84
2022/03/18 10:22:10;;;;;;;13.05;6.75;;;12.40;99.90;;;;;;5123733;27;20050;-84
2022/03/18 10:24:38;;;;;;;11.75;6.40;;;12.50;99.90;;;;;;5042059;28;20060;-84
2022/03/18 10:27:21;;;;;;;11.35;5.50;;;12.60;99.90;;;;;;5007706;28;20045;-84
2022/03/18 10:29:48;;;;;;;12.75;5.68;;;12.90;99.90;;;;;;5025016;28;20519;-84
2022/03/18 10:32:16;;;;;;;14.20;5.63;;;13.20;99.90;;;;;;5024531;28;20057;-84
2022/03/18 10:37:48;;;;;;;14.10;6.28;;;13.00;99.90;;;;;;5018819;28;20434;-84
2022/03/18 10:40:17;;;;;;;10.35;5.03;;;13.10;99.90;;;;;;5018592;28;20045;-84
2022/03/18 10:42:59;;;;;;;12.85;5.38;;;13.20;99.90;;;;;;5034993;28;20076;-84
2022/03/18 10:45:24;;;;;;;13.63;6.32;;;13.30;99.90;;;;;;5036777;28;20095;-84
2022/03/18 10:47:51;;;;;;;11.52;5.90;;;13.40;99.90;;;;;;5030921;28;20132;-84
2022/03/18 10:50:26;;;;;;;13.07;6.18;;;13.50;99.90;;;;;;5035906;28;20049;-84
2022/03/18 10:52:58;;;;;;;13.80;5.00;;;13.60;99.90;;;;;;5023723;28;20132;-84
2022/03/18 10:55:35;;;;;;;13.38;5.90;;;13.70;99.90;;;;;;5036278;28;20069;-84
2022/03/18 10:58:10;;;;;;;14.98;6.05;;;13.90;99.90;;;;;;5036803;28;20124;-84
2022/03/18 11:00:38;;;;;;;14.67;5.40;;;14.10;99.90;;;;;;5054470;27;20080;-84
2022/03/18 11:03:04;;;;;;;13.23;4.97;;;14.10;99.90;;;;;;5138387;27;20277;-84
2022/03/18 11:05:35;;;;;;;10.23;4.63;;;14.40;99.90;;;;;;5119019;27;20114;-84
2022/03/18 11:08:02;;;;;;;12.57;4.97;;;14.40;99.90;;;;;;5102306;27;20393;-84
2022/03/18 11:13:15;;;;;;;12.10;5.80;;;14.50;99.90;;;;;;5119049;27;20043;-84
2022/03/18 11:15:43;;;;;;;10.02;5.10;;;14.40;99.90;;;;;;5118151;27;20489;-84
2022/03/18 11:18:11;;;;;;;10.48;5.18;;;14.60;99.90;;;;;;5101944;27;20050;-84
2022/03/18 11:20:44;;;;;;;9.45;4.13;;;15.00;99.90;;;;;;5118699;27;20134;-84
2022/03/18 11:23:17;;;;;;;11.38;4.57;;;14.90;99.90;;;;;;5119073;27;20075;-84
2022/03/18 11:25:45;;;;;;;12.00;4.57;;;15.00;99.90;;;;;;5118943;27;20505;-84
2022/03/18 11:28:15;;;;;;;10.40;4.18;;;14.90;99.90;;;;;;5118668;27;20047;-84
2022/03/18 11:30:41;;;;;;;8.70;3.72;;;14.80;99.90;;;;;;5101858;27;20038;-84
2022/03/18 11:33:10;;;;;;;9.05;3.65;;;14.90;99.90;;;;;;5137139;27;20516;-84
2022/03/18 11:36:06;;;;;;;10.15;4.00;;;15.10;99.90;;;;;;5101760;27;20043;-84
2022/03/18 11:38:48;;;;;;;;;;;15.30;99.90;;;;;;5128728;27;20510;-84
2022/03/18 11:41:16;;;;;;;12.48;4.60;;;15.30;99.90;;;;;;5118615;27;19919;-84
2022/03/18 11:43:42;;;;;;;16.90;4.70;;;15.20;99.90;;;;;;5118133;27;20497;-84
2022/03/18 11:46:13;;;;;;;11.48;4.35;;;15.50;99.90;;;;;;5118166;27;20123;-84
2022/03/18 11:48:50;;;;;;;11.40;4.82;;;15.80;99.90;;;;;;5117879;27;20047;-84
2022/03/18 11:51:31;;;;;;;11.48;4.72;;;16.00;99.90;;;;;;5117922;27;20051;-84
2022/03/18 11:54:01;;;;;;;14.00;4.25;;;16.20;99.90;;;;;;5118112;27;20050;-84
2022/03/18 11:56:39;;;;;;;10.38;4.63;;;16.30;99.90;;;;;;5117692;27;20134;-84
2022/03/18 11:59:24;;;;;;;9.93;4.80;;;16.20;99.90;;;;;;5117571;27;20059;-84
2022/03/18 12:01:53;;;;;;;9.90;4.70;;;16.10;99.90;;;;;;5136157;27;20076;-84
2022/03/18 12:04:36;;;;;;;12.23;5.03;;;16.10;99.90;;;;;;5100675;27;20039;-84
2022/03/18 12:07:28;;;;;;;11.70;4.85;;;16.30;99.90;;;;;;5118126;27;20131;-84
2022/03/18 12:10:10;;;;;;;10.27;4.07;;;16.30;99.90;;;;;;5117520;27;20121;-85
2022/03/18 12:12:37;;;;;;;12.15;3.78;;;16.10;99.90;;;;;;5117794;27;20063;-84
2022/03/18 12:15:08;;;;;;;10.43;3.83;;;15.90;99.90;;;;;;5101027;27;20505;-84
2022/03/18 12:17:42;;;;;;;10.80;3.75;;;15.30;99.90;;;;;;5117621;27;20049;-84
2022/03/18 12:20:10;;;;;;;7.65;3.55;;;15.10;99.90;;;;;;5117578;27;20054;-84
2022/03/18 12:22:41;;;;;;;10.02;3.20;;;14.90;99.90;;;;;;5118078;27;20043;-84
2022/03/18 12:25:08;;;;;;;8.73;3.47;;;14.70;99.90;;;;;;5117692;27;20055;-84
2022/03/18 12:27:36;;;;;;;12.18;3.80;;;14.80;99.90;;;;;;5117025;27;20054;-84
2022/03/18 12:30:05;;;;;;;9.68;3.10;;;15.20;99.90;;;;;;5136352;27;20066;-84
2022/03/18 12:32:31;;;;;;;8.45;3.20;;;15.50;99.90;;;;;;5117793;27;20126;-84
2022/03/18 12:34:57;;;;;;;9.70;3.30;;;15.90;99.90;;;;;;5117870;27;20127;-85
2022/03/18 12:37:31;;;;;;;8.98;2.63;;;16.10;99.90;;;;;;5100810;27;20039;-85
2022/03/18 12:40:08;;;;;;;10.80;3.50;;;16.50;99.90;;;;;;5117661;27;20035;-85
2022/03/18 12:42:56;;;;;;;8.82;2.97;;;16.70;99.90;;;;;;5100510;27;20442;-84
2022/03/18 12:45:33;;;;;;;9.63;2.67;;;16.50;99.90;;;;;;5117172;27;20485;-84
2022/03/18 12:48:02;;;;;;;13.20;3.55;;;16.10;99.90;;;;;;5117599;27;20385;-85
2022/03/18 12:50:33;;;;;;;11.35;3.28;;;15.90;99.90;;;;;;5117109;27;20054;-85
2022/03/18 12:53:00;;;;;;;11.48;3.53;;;15.90;99.90;;;;;;5116837;27;20043;-84
2022/03/18 12:55:26;;;;;;;10.93;3.13;;;15.90;99.90;;;;;;5117094;27;20413;-85
2022/03/18 12:57:53;;;;;;;10.15;3.38;;;16.60;99.90;;;;;;5135550;27;20126;-84
2022/03/18 13:00:20;;;;;;;8.70;2.88;;;17.10;99.90;;;;;;5116895;27;20123;-85
2022/03/18 13:02:46;;;;;;;8.60;3.28;;;17.70;99.90;;;;;;5116446;27;20477;-85